Terminal Aerodrome Forecast
Issued by NWS Mt. Holly, NJ

Home | Current Version | Previous Version | Text Only | Print | Product List | Glossary On
Versions: 1 2 3 4 5 6 7 8 9 10 11 12 13 14 15 16 17 18
207
FTUS41 KPHI 281120
TAFTTN
TAF
KTTN 281120Z 2812/0112 00000KT P6SM BKN080 OVC100
     FM281500 16004KT P6SM SCT250
     FM282200 18007KT P6SM SCT050 BKN150
     FM010000 16005KT 2SM SHRA BR BKN025 OVC050
     FM010300 18005KT 2SM SHRA BR BKN008 OVC010
     FM010700 20007KT 2SM BR OVC003 WS020/23035KT=

USA.gov is the U.S. government's official web portal to all federal, state and local government web resources and services.